Fountain, Colorado
Current Conditions -  °F | °C
As of 11:58 PM on Saturday 25 Oct 2014 (Local Time) from KFCS Reporting Station
Clear Clear  
Wind Chill: 51°   Ceiling: Unl
Heat Index: 51°   Visibility: 10mi
Dew Point: 27°   Wind: 7mph
Humidity: 40%   Direction: 330°NNW
Pressure: 30.02"   Gusts: NA
Location:  38.68°N, 104.7°W
Report Text: KFCS 260558Z AUTO 33006KT 10SM CLR 10/M03 A3002 RMK AO2 SLP124 T01031029 10203 20103 57017
Loading
Personal Weather Stations






























Interactive Weather Map
Tropical Storm Tracking
New forecast layout! Learn more

10-Day Weather Forecast

Advertisements
Track Severe Weather on mobile